Giovedž 14 Nov 2019 Home 
MX of N - MX2 Risultati qualifiche [17-09-11 20:51 by staff GoNBike.com] 

Qualifying Heat MX2 - Classification

Pos Nr Rider Nat. Fed. Bike Time laps Diff. First Diff. Prev. Bestlaptime in lap Speed

1 2 Bagget, Blake USA AMA Kawasaki 24:45.804 14 0:00.000 0:00.000 1:41.990 5 52.946
2 20 Musquin, Marvin FRA AMA KTM 24:54.680 14 0:08.876 0:08.876 1:42.593 4 52.635
3 11 Wilson, Dean GBR ACU Kawasaki 24:57.135 14 0:11.331 0:02.455 1:41.633 4 53.132
4 8 Roczen, Ken GER DMSB KTM 24:57.546 14 0:11.742 0:00.411 1:42.701 7 52.58
5 5 Roelants, Joel BEL FMB KTM 25:20.847 14 0:35.043 0:23.301 1:43.153 4 52.349
6 14 Lupino, Alessandro ITA FMI Husqvarna 25:41.054 14 0:55.250 0:20.207 1:44.787 4 51.533
7 35 Rauchenecker, Pascal AUT OeAMTC KTM 25:42.953 14 0:57.149 0:01.899 1:43.829 4 52.009
8 120 Olsen, Stefan Kjer DEN DMU Yamaha 25:55.195 14 1:09.391 0:12.242 1:46.082 2 50.904
9 38 Butron, Jose Antonio ESP RFME KTM 26:01.347 14 1:15.543 0:06.152 1:47.059 5 50.439
10 59 Edmonds, Stuart IRL MCUI TM 26:02.554 14 1:16.750 0:01.207 1:46.232 3 50.832
11 32 Seewer, Jeremy SUI FMS Suzuki 26:05.234 14 1:19.430 0:02.680 1:46.991 5 50.472
12 129 Gajser, Tim SLO AMZS KTM 26:12.199 14 1:26.395 0:06.965 1:47.297 6 50.328
13 114 Tonkov, Aleksandr RUS FMI Yamaha 26:16.730 14 1:30.926 0:04.531 1:47.119 4 50.411
14 44 Rštsep, Priit EST EMF Honda 26:18.023 14 1:32.219 0:01.293 1:47.881 8 50.055
15 41 SŲderberg, Ludvig FIN SML Kawasaki 26:18.264 14 1:32.460 0:00.241 1:48.192 5 49.911
16 53 Ferreira de Lima, Eduardo BRA CBM Kawasaki 26:19.508 14 1:33.704 0:01.244 1:48.039 3 49.982
17 102 Heibye, Even NOR NMF KTM 26:20.470 14 1:34.666 0:00.962 1:47.335 6 50.31
18 26 Alberto, Paulo POR FMP Suzuki 26:24.913 14 1:39.109 0:04.443 1:47.581 5 50.195
19 50 Ivanovs, Davis LAT LAMSF Kawasaki 26:26.756 14 1:40.952 0:01.843 1:48.179 5 49.917
20 111 Bastemeijer, Donny NED KNMV Honda 27:04.031 14 2:18.227 0:37.275 1:46.601 5 50.656
21 56 Mihara, Takuya JPN MFJ Kawasaki 24:48.220 13 1 lap 1 lap 1:47.440 7 50.261
22 65 Bengtsson, Filip SWE SVEMO KTM 25:08.904 13 1 lap 0:20.684 1:50.226 9 48.99
23 23 Phillips, John NZL ACU Suzuki 25:13.302 13 1 lap 0:04.398 1:48.560 5 49.742
24 126 Sukup, Marek CZE ACCR Kawasaki 25:25.925 13 1 lap 0:12.623 1:49.191 3 49.455
25 123 Karas, Hrvoje CRO HMS Yamaha 25:30.097 13 1 lap 0:04.172 1:51.608 4 48.384
26 29 Weeck, Tommy PUR AMA Kawasaki 25:55.594 13 1 lap 0:25.497 1:44.215 3 51.816
27 74 Burenko, Andriy UKR FMU Yamaha 26:08.423 13 1 lap 0:12.829 1:52.180 3 48.137
28 68 Badiali, Carlos VEN FMV Honda 25:05.659 12 2 laps 1 lap 1:49.771 5 49.193
29 89 Reynisson, Eythor ISL MSI Suzuki 25:23.513 12 2 laps 0:17.854 1:53.287 2 47.667
30 132 Papilas, Panagiotis GRE ELPA Honda 25:33.918 12 2 laps 0:10.405 1:58.806 3 45.452
31 17 Moss, Matt AUS MA KTM 25:44.000 12 2 laps 0:10.082 1:46.567 7 50.672
32 108 Yang, Jie CHN CMSA Honda 26:47.248 12 2 laps 1:03.248 2:01.146 3 44.574
33 83 Rukstela, Nerijus LTU LMSF Suzuki 26:19.116 11 3 laps 1 lap 1:54.535 3 47.147
34 135 Alruwaih, Abdullah Hamed KUW KIAC Suzuki 25:48.335 9 5 laps 2 laps 2:37.512 2 34.283
35 105 Suksripaisan, Jugkrit THA FMSCT Honda 17:24.290 6 8 laps 3 laps 1:59.274 1 45.274
36 117 Terreblance, Shannon RSA MSA Honda 4:49.472 2 12 laps 4 laps 1:59.714 2 45.108

::Youthstream::




Visualizza tutte le newsArchivio Cerca un termine nelle newsCerca Leggi le news piý recentiPiù recenti   Versione stampabileStampa 
Notizia precedente
MX of N - MX1 Risultati qualifiche
Notizia successiva
MX of N - MX Open Risultati qualifiche